Vancouver Fireboat 1 — VFB1 — position and weather

sailwx.info

Track history (hours):
 
Tides and Currents Weather Stations Pressure Air Temp Water Temp Dewpoint Dewpoint Depression Visibility Wind Speed Wind Dir Waves Ship Positions

Vancouver Fireboat 1

Last reported at 2017-Nov-18 18:17 UTC. Time now 2017-Nov-23 04:01 UTC.
Position N 45°37' W 122°38'.

Type: . MMSI: 338166967.

Date/timePositionNaut miles runAvg speedWind from/ knotsBaromVisibWave heightAir tempDewpointWater temp
2017-Nov-18 18:17N 45°37' W 122°38'0 0.0
2017-Nov-18 17:53N 45°37' W 122°38'0 0.0
2017-Nov-18 16:23N 45°37' W 122°38'0 0.0
2017-Nov-18 15:53N 45°37' W 122°38'0 0.0
2017-Nov-18 04:49N 45°37' W 122°38'1 1.0
2017-Nov-18 04:12N 45°37' W 122°37'1 3.2
2017-Nov-18 04:00N 45°36' W 122°38'1 2.5
2017-Nov-18 03:30N 45°36' W 122°39'2 3.6
2017-Nov-18 03:01N 45°37' W 122°42'1 1.3
2017-Nov-18 02:30N 45°38' W 122°42'3 0.6
2017-Nov-17 20:37N 45°37' W 122°38'0 0.0
2017-Nov-17 20:13N 45°37' W 122°38'0 0.0
2017-Nov-17 18:49N 45°37' W 122°38'0 0.0
2017-Nov-17 17:19N 45°37' W 122°38'0 0.0
2017-Nov-17 16:49N 45°37' W 122°38'0 0.0
2017-Nov-17 16:25N 45°37' W 122°38'0 0.0
2017-Nov-17 15:49N 45°37' W 122°38'0 0.0
2017-Nov-16 22:25N 45°37' W 122°38'0 0.0
2017-Nov-16 21:43N 45°37' W 122°38'0 0.0
2017-Nov-16 21:19N 45°37' W 122°38'0 0.0
2017-Nov-16 17:49N 45°37' W 122°38'0 0.0
2017-Nov-16 16:19N 45°37' W 122°38'0 0.0
2017-Nov-16 15:55N 45°37' W 122°38'0 0.0
2017-Nov-16 00:13N 45°37' W 122°38'0 0.0
2017-Nov-15 23:55N 45°37' W 122°38'0 0.0
2017-Nov-15 23:25N 45°37' W 122°38'0 0.0
2017-Nov-15 22:55N 45°37' W 122°38'0 0.0
2017-Nov-15 22:25N 45°37' W 122°38'0 0.0
2017-Nov-15 21:55N 45°37' W 122°38'2 2.8
2017-Nov-15 21:22N 45°37' W 122°40'412.0
2017-Nov-15 21:00N 45°39' W 122°45'3 6.5
2017-Nov-15 20:28N 45°42' W 122°46'0 0.0
2017-Nov-15 19:58N 45°42' W 122°46'0 0.0
2017-Nov-15 19:13N 45°42' W 122°46'412.2
2017-Nov-15 18:53N 45°38' W 122°44'510.6
2017-Nov-15 18:27N 45°37' W 122°38'0 0.0
2017-Nov-15 17:57N 45°37' W 122°38'0 0.0
2017-Nov-15 17:27N 45°37' W 122°38'0 0.0
2017-Nov-15 16:57N 45°37' W 122°38'0 0.0
2017-Nov-15 16:27N 45°37' W 122°38'0 0.0
2017-Nov-15 15:57N 45°37' W 122°38'0 0.0
2017-Nov-15 00:15N 45°37' W 122°38'0 0.0
2017-Nov-14 23:57N 45°37' W 122°38'0 0.0
2017-Nov-14 23:21N 45°37' W 122°38'0 0.0
2017-Nov-14 22:45N 45°37' W 122°38'0 0.0
2017-Nov-14 22:27N 45°37' W 122°38'0 0.0
2017-Nov-14 21:15N 45°37' W 122°38'0 0.0
2017-Nov-14 20:21N 45°37' W 122°38'0 0.0
2017-Nov-14 19:57N 45°37' W 122°38'0 0.0
2017-Nov-14 19:15N 45°37' W 122°38'0 0.0
2017-Nov-14 18:39N 45°37' W 122°38'0 0.0
2017-Nov-14 18:27N 45°37' W 122°38'0 0.0
2017-Nov-14 17:57N 45°37' W 122°38'0 0.0
2017-Nov-14 17:27N 45°37' W 122°38'0 0.0
2017-Nov-14 16:57N 45°37' W 122°38'0 0.0
2017-Nov-14 16:27N 45°37' W 122°38'0 0.0
2017-Nov-14 15:57N 45°37' W 122°38'0 0.0
2017-Nov-14 04:51N 45°37' W 122°38'0 0.6
2017-Nov-14 04:30N 45°37' W 122°38'1 1.2
2017-Nov-14 03:55N 45°37' W 122°37'2 3.9
2017-Nov-14 03:30N 45°37' W 122°39'1 1.5
2017-Nov-14 03:00N 45°37' W 122°40'2 4.6
2017-Nov-14 02:29N 45°38' W 122°43'0 0.5
2017-Nov-14 02:00N 45°38' W 122°43'4 7.4
2017-Nov-14 01:30N 45°37' W 122°38'0 0.2
2017-Nov-14 00:15N 45°37' W 122°38'0 0.0
2017-Nov-13 22:51N 45°37' W 122°38'0 0.0
2017-Nov-13 22:21N 45°37' W 122°38'0 0.0
2017-Nov-13 00:21N 45°37' W 122°38'0 0.0
2017-Nov-12 23:57N 45°37' W 122°38'0 0.0
2017-Nov-12 23:27N 45°37' W 122°38'0 0.0
2017-Nov-12 22:51N 45°37' W 122°38'0 0.0
2017-Nov-12 22:27N 45°37' W 122°38'0 0.0
2017-Nov-12 21:45N 45°37' W 122°38'0 0.0
2017-Nov-12 21:27N 45°37' W 122°38'0 0.0
2017-Nov-12 20:57N 45°37' W 122°38'0 0.0
2017-Nov-12 20:27N 45°37' W 122°38'0 0.0
2017-Nov-12 19:57N 45°37' W 122°38'0 0.0
2017-Nov-12 19:21N 45°37' W 122°38'0 0.0
2017-Nov-12 18:57N 45°37' W 122°38'0 0.0
2017-Nov-12 18:27N 45°37' W 122°38'0 0.0
2017-Nov-12 17:57N 45°37' W 122°38'0 0.0
2017-Nov-12 17:27N 45°37' W 122°38'0 0.0
2017-Nov-12 16:57N 45°37' W 122°38'0 0.0
2017-Nov-12 16:27N 45°37' W 122°38'0 0.0
2017-Nov-12 15:57N 45°37' W 122°38'0 0.0
2017-Nov-12 00:21N 45°37' W 122°38'0 0.0
2017-Nov-11 21:45N 45°37' W 122°38'0 0.0
2017-Nov-11 21:21N 45°37' W 122°38'0 0.0
2017-Nov-11 20:51N 45°37' W 122°38'0 0.0
2017-Nov-11 20:21N 45°37' W 122°38'0 0.0
2017-Nov-11 19:57N 45°37' W 122°38'0 0.0
2017-Nov-11 19:27N 45°37' W 122°38'0 0.0
2017-Nov-11 18:57N 45°37' W 122°38'0 0.0
2017-Nov-11 18:27N 45°37' W 122°38'0 0.0
2017-Nov-11 17:51N 45°37' W 122°38'0 0.0
2017-Nov-11 17:27N 45°37' W 122°38'0 0.0
2017-Nov-11 16:57N 45°37' W 122°38'0 0.0
2017-Nov-11 16:21N 45°37' W 122°38'0 0.0
2017-Nov-11 15:57N 45°37' W 122°38'0 0.0
2017-Nov-11 11:03N 45°37' W 122°38'0 0.0
2017-Nov-11 10:33N 45°37' W 122°38'0 0.0
2017-Nov-11 10:21N 45°37' W 122°38'0 0.0
2017-Nov-11 03:21N 45°37' W 122°38'0 0.0
2017-Nov-11 02:51N 45°37' W 122°38'0 0.0
2017-Nov-11 00:39N 45°37' W 122°38'0 0.0
2017-Nov-11 00:21N 45°37' W 122°38'0 0.0
2017-Nov-10 23:57N 45°37' W 122°38'0 0.0
2017-Nov-10 23:27N 45°37' W 122°38'0 0.0
2017-Nov-10 22:57N 45°37' W 122°38'0 0.0
2017-Nov-10 22:27N 45°37' W 122°38'0 0.0
2017-Nov-10 21:57N 45°37' W 122°38'0 0.0
2017-Nov-10 21:27N 45°37' W 122°38'0 0.0
2017-Nov-10 20:57N 45°37' W 122°38'0 0.0
2017-Nov-10 20:27N 45°37' W 122°38'0 0.0
2017-Nov-10 19:57N 45°37' W 122°38'0 0.0
2017-Nov-10 19:27N 45°37' W 122°38'0 0.0
2017-Nov-10 18:57N 45°37' W 122°38'0 0.0
2017-Nov-10 18:27N 45°37' W 122°38'0 0.0
2017-Nov-10 17:57N 45°37' W 122°38'0 0.0
2017-Nov-10 17:27N 45°37' W 122°38'0 0.0
2017-Nov-10 16:57N 45°37' W 122°38'0 0.0
2017-Nov-10 16:27N 45°37' W 122°38'0 0.0
2017-Nov-10 15:57N 45°37' W 122°38'0 0.0
2017-Nov-10 10:57N 45°37' W 122°38'0 0.0
2017-Nov-10 00:42N 45°37' W 122°38'0 0.0
2017-Nov-10 00:27N 45°37' W 122°38'0 0.0
2017-Nov-09 23:57N 45°37' W 122°38'0 0.0
2017-Nov-09 23:27N 45°37' W 122°38'0 0.0
2017-Nov-09 22:57N 45°37' W 122°38'0 0.0
2017-Nov-09 22:27N 45°37' W 122°38'0 0.0
2017-Nov-09 21:57N 45°37' W 122°38'0 0.0
2017-Nov-09 21:00N 45°37' W 122°38'0 0.0
2017-Nov-09 20:27N 45°37' W 122°38'0 0.0
2017-Nov-09 19:57N 45°37' W 122°38'0 0.0
2017-Nov-09 19:27N 45°37' W 122°38'0 0.0
2017-Nov-09 18:57N 45°37' W 122°38'0 0.0
2017-Nov-09 18:27N 45°37' W 122°38'0 0.0
2017-Nov-09 17:57N 45°37' W 122°38'0 0.0
2017-Nov-09 17:09N 45°37' W 122°38'0 0.0
2017-Nov-09 16:57N 45°37' W 122°38'0 0.0
2017-Nov-09 16:21N 45°37' W 122°38'0 0.0
2017-Nov-09 15:57N 45°37' W 122°38'0 0.0
2017-Nov-09 09:33N 45°37' W 122°38'0 0.0
2017-Nov-09 09:03N 45°37' W 122°38'0 0.0
2017-Nov-08 23:48N 45°37' W 122°38'0 0.0
2017-Nov-08 19:24N 45°37' W 122°38'  
Track history (hours):
 
Tides and Currents Weather Stations Pressure Air Temp Water Temp Dewpoint Dewpoint Depression Visibility Wind Speed Wind Dir Waves Ship Positions

Vancouver Fireboat 1

Last reported at 2017-Nov-18 18:17 UTC. Time now 2017-Nov-23 04:01 UTC.
Position N 45°37' W 122°38'.

Type: . MMSI: 338166967.

Date/timePositionNaut miles runAvg speedWind from/ knotsBaromVisibWave heightAir tempDewpointWater temp
2017-Nov-18 18:17N 45°37' W 122°38'0 0.0
2017-Nov-18 17:53N 45°37' W 122°38'0 0.0
2017-Nov-18 16:23N 45°37' W 122°38'0 0.0
2017-Nov-18 15:53N 45°37' W 122°38'0 0.0
2017-Nov-18 04:49N 45°37' W 122°38'1 1.0
2017-Nov-18 04:12N 45°37' W 122°37'1 3.2
2017-Nov-18 04:00N 45°36' W 122°38'1 2.5
2017-Nov-18 03:30N 45°36' W 122°39'2 3.6
2017-Nov-18 03:01N 45°37' W 122°42'1 1.3
2017-Nov-18 02:30N 45°38' W 122°42'3 0.6
2017-Nov-17 20:37N 45°37' W 122°38'0 0.0
2017-Nov-17 20:13N 45°37' W 122°38'0 0.0
2017-Nov-17 18:49N 45°37' W 122°38'0 0.0
2017-Nov-17 17:19N 45°37' W 122°38'0 0.0
2017-Nov-17 16:49N 45°37' W 122°38'0 0.0
2017-Nov-17 16:25N 45°37' W 122°38'0 0.0
2017-Nov-17 15:49N 45°37' W 122°38'0 0.0
2017-Nov-16 22:25N 45°37' W 122°38'0 0.0
2017-Nov-16 21:43N 45°37' W 122°38'0 0.0
2017-Nov-16 21:19N 45°37' W 122°38'0 0.0
2017-Nov-16 17:49N 45°37' W 122°38'0 0.0
2017-Nov-16 16:19N 45°37' W 122°38'0 0.0
2017-Nov-16 15:55N 45°37' W 122°38'0 0.0
2017-Nov-16 00:13N 45°37' W 122°38'0 0.0
2017-Nov-15 23:55N 45°37' W 122°38'0 0.0
2017-Nov-15 23:25N 45°37' W 122°38'0 0.0
2017-Nov-15 22:55N 45°37' W 122°38'0 0.0
2017-Nov-15 22:25N 45°37' W 122°38'0 0.0
2017-Nov-15 21:55N 45°37' W 122°38'2 2.8
2017-Nov-15 21:22N 45°37' W 122°40'412.0
2017-Nov-15 21:00N 45°39' W 122°45'3 6.5
2017-Nov-15 20:28N 45°42' W 122°46'0 0.0
2017-Nov-15 19:58N 45°42' W 122°46'0 0.0
2017-Nov-15 19:13N 45°42' W 122°46'412.2
2017-Nov-15 18:53N 45°38' W 122°44'510.6
2017-Nov-15 18:27N 45°37' W 122°38'0 0.0
2017-Nov-15 17:57N 45°37' W 122°38'0 0.0
2017-Nov-15 17:27N 45°37' W 122°38'0 0.0
2017-Nov-15 16:57N 45°37' W 122°38'0 0.0
2017-Nov-15 16:27N 45°37' W 122°38'0 0.0
2017-Nov-15 15:57N 45°37' W 122°38'0 0.0
2017-Nov-15 00:15N 45°37' W 122°38'0 0.0
2017-Nov-14 23:57N 45°37' W 122°38'0 0.0
2017-Nov-14 23:21N 45°37' W 122°38'0 0.0
2017-Nov-14 22:45N 45°37' W 122°38'0 0.0
2017-Nov-14 22:27N 45°37' W 122°38'0 0.0
2017-Nov-14 21:15N 45°37' W 122°38'0 0.0
2017-Nov-14 20:21N 45°37' W 122°38'0 0.0
2017-Nov-14 19:57N 45°37' W 122°38'0 0.0
2017-Nov-14 19:15N 45°37' W 122°38'0 0.0
2017-Nov-14 18:39N 45°37' W 122°38'0 0.0
2017-Nov-14 18:27N 45°37' W 122°38'0 0.0
2017-Nov-14 17:57N 45°37' W 122°38'0 0.0
2017-Nov-14 17:27N 45°37' W 122°38'0 0.0
2017-Nov-14 16:57N 45°37' W 122°38'0 0.0
2017-Nov-14 16:27N 45°37' W 122°38'0 0.0
2017-Nov-14 15:57N 45°37' W 122°38'0 0.0
2017-Nov-14 04:51N 45°37' W 122°38'0 0.6
2017-Nov-14 04:30N 45°37' W 122°38'1 1.2
2017-Nov-14 03:55N 45°37' W 122°37'2 3.9
2017-Nov-14 03:30N 45°37' W 122°39'1 1.5
2017-Nov-14 03:00N 45°37' W 122°40'2 4.6
2017-Nov-14 02:29N 45°38' W 122°43'0 0.5
2017-Nov-14 02:00N 45°38' W 122°43'4 7.4
2017-Nov-14 01:30N 45°37' W 122°38'0 0.2
2017-Nov-14 00:15N 45°37' W 122°38'0 0.0
2017-Nov-13 22:51N 45°37' W 122°38'0 0.0
2017-Nov-13 22:21N 45°37' W 122°38'0 0.0
2017-Nov-13 00:21N 45°37' W 122°38'0 0.0
2017-Nov-12 23:57N 45°37' W 122°38'0 0.0
2017-Nov-12 23:27N 45°37' W 122°38'0 0.0
2017-Nov-12 22:51N 45°37' W 122°38'0 0.0
2017-Nov-12 22:27N 45°37' W 122°38'0 0.0
2017-Nov-12 21:45N 45°37' W 122°38'0 0.0
2017-Nov-12 21:27N 45°37' W 122°38'0 0.0
2017-Nov-12 20:57N 45°37' W 122°38'0 0.0
2017-Nov-12 20:27N 45°37' W 122°38'0 0.0
2017-Nov-12 19:57N 45°37' W 122°38'0 0.0
2017-Nov-12 19:21N 45°37' W 122°38'0 0.0
2017-Nov-12 18:57N 45°37' W 122°38'0 0.0
2017-Nov-12 18:27N 45°37' W 122°38'0 0.0
2017-Nov-12 17:57N 45°37' W 122°38'0 0.0
2017-Nov-12 17:27N 45°37' W 122°38'0 0.0
2017-Nov-12 16:57N 45°37' W 122°38'0 0.0
2017-Nov-12 16:27N 45°37' W 122°38'0 0.0
2017-Nov-12 15:57N 45°37' W 122°38'0 0.0
2017-Nov-12 00:21N 45°37' W 122°38'0 0.0
2017-Nov-11 21:45N 45°37' W 122°38'0 0.0
2017-Nov-11 21:21N 45°37' W 122°38'0 0.0
2017-Nov-11 20:51N 45°37' W 122°38'0 0.0
2017-Nov-11 20:21N 45°37' W 122°38'0 0.0
2017-Nov-11 19:57N 45°37' W 122°38'0 0.0
2017-Nov-11 19:27N 45°37' W 122°38'0 0.0
2017-Nov-11 18:57N 45°37' W 122°38'0 0.0
2017-Nov-11 18:27N 45°37' W 122°38'0 0.0
2017-Nov-11 17:51N 45°37' W 122°38'0 0.0
2017-Nov-11 17:27N 45°37' W 122°38'0 0.0
2017-Nov-11 16:57N 45°37' W 122°38'0 0.0
2017-Nov-11 16:21N 45°37' W 122°38'0 0.0
2017-Nov-11 15:57N 45°37' W 122°38'0 0.0
2017-Nov-11 11:03N 45°37' W 122°38'0 0.0
2017-Nov-11 10:33N 45°37' W 122°38'0 0.0
2017-Nov-11 10:21N 45°37' W 122°38'0 0.0
2017-Nov-11 03:21N 45°37' W 122°38'0 0.0
2017-Nov-11 02:51N 45°37' W 122°38'0 0.0
2017-Nov-11 00:39N 45°37' W 122°38'0 0.0
2017-Nov-11 00:21N 45°37' W 122°38'0 0.0
2017-Nov-10 23:57N 45°37' W 122°38'0 0.0
2017-Nov-10 23:27N 45°37' W 122°38'0 0.0
2017-Nov-10 22:57N 45°37' W 122°38'0 0.0
2017-Nov-10 22:27N 45°37' W 122°38'0 0.0
2017-Nov-10 21:57N 45°37' W 122°38'0 0.0
2017-Nov-10 21:27N 45°37' W 122°38'0 0.0
2017-Nov-10 20:57N 45°37' W 122°38'0 0.0
2017-Nov-10 20:27N 45°37' W 122°38'0 0.0
2017-Nov-10 19:57N 45°37' W 122°38'0 0.0
2017-Nov-10 19:27N 45°37' W 122°38'0 0.0
2017-Nov-10 18:57N 45°37' W 122°38'0 0.0
2017-Nov-10 18:27N 45°37' W 122°38'0 0.0
2017-Nov-10 17:57N 45°37' W 122°38'0 0.0
2017-Nov-10 17:27N 45°37' W 122°38'0 0.0
2017-Nov-10 16:57N 45°37' W 122°38'0 0.0
2017-Nov-10 16:27N 45°37' W 122°38'0 0.0
2017-Nov-10 15:57N 45°37' W 122°38'0 0.0
2017-Nov-10 10:57N 45°37' W 122°38'0 0.0
2017-Nov-10 00:42N 45°37' W 122°38'0 0.0
2017-Nov-10 00:27N 45°37' W 122°38'0 0.0
2017-Nov-09 23:57N 45°37' W 122°38'0 0.0
2017-Nov-09 23:27N 45°37' W 122°38'0 0.0
2017-Nov-09 22:57N 45°37' W 122°38'0 0.0
2017-Nov-09 22:27N 45°37' W 122°38'0 0.0
2017-Nov-09 21:57N 45°37' W 122°38'0 0.0
2017-Nov-09 21:00N 45°37' W 122°38'0 0.0
2017-Nov-09 20:27N 45°37' W 122°38'0 0.0
2017-Nov-09 19:57N 45°37' W 122°38'0 0.0
2017-Nov-09 19:27N 45°37' W 122°38'0 0.0
2017-Nov-09 18:57N 45°37' W 122°38'0 0.0
2017-Nov-09 18:27N 45°37' W 122°38'0 0.0
2017-Nov-09 17:57N 45°37' W 122°38'0 0.0
2017-Nov-09 17:09N 45°37' W 122°38'0 0.0
2017-Nov-09 16:57N 45°37' W 122°38'0 0.0
2017-Nov-09 16:21N 45°37' W 122°38'0 0.0
2017-Nov-09 15:57N 45°37' W 122°38'0 0.0
2017-Nov-09 09:33N 45°37' W 122°38'0 0.0
2017-Nov-09 09:03N 45°37' W 122°38'0 0.0
2017-Nov-08 23:48N 45°37' W 122°38'0 0.0
2017-Nov-08 19:24N 45°37' W 122°38'  

Dump ship's entire track history